sensor_id;sensor_type;location;lat;lon;timestamp;P1;durP1;ratioP1;P2;durP2;ratioP2
4519;SDS011;2272;49.226;8.108;2024-03-25T00:01:13;5.20;;;3.53;;
4519;SDS011;2272;49.226;8.108;2024-03-25T00:03:39;7.63;;;3.80;;
4519;SDS011;2272;49.226;8.108;2024-03-25T00:06:06;4.23;;;3.30;;
4519;SDS011;2272;49.226;8.108;2024-03-25T00:08:31;4.70;;;3.53;;
4519;SDS011;2272;49.226;8.108;2024-03-25T00:11:00;2.90;;;2.70;;
4519;SDS011;2272;49.226;8.108;2024-03-25T00:13:25;4.30;;;3.90;;
4519;SDS011;2272;49.226;8.108;2024-03-25T00:15:52;8.27;;;3.23;;
4519;SDS011;2272;49.226;8.108;2024-03-25T00:18:18;5.07;;;3.20;;
4519;SDS011;2272;49.226;8.108;2024-03-25T00:20:44;9.07;;;4.07;;
4519;SDS011;2272;49.226;8.108;2024-03-25T00:23:10;7.77;;;3.80;;
4519;SDS011;2272;49.226;8.108;2024-03-25T00:25:37;7.37;;;3.43;;
4519;SDS011;2272;49.226;8.108;2024-03-25T00:28:05;4.33;;;3.53;;
4519;SDS011;2272;49.226;8.108;2024-03-25T00:30:31;3.80;;;3.50;;
4519;SDS011;2272;49.226;8.108;2024-03-25T00:32:57;8.53;;;3.83;;
4519;SDS011;2272;49.226;8.108;2024-03-25T00:35:24;5.57;;;3.80;;
4519;SDS011;2272;49.226;8.108;2024-03-25T00:37:49;6.00;;;3.93;;
4519;SDS011;2272;49.226;8.108;2024-03-25T00:40:16;5.63;;;3.40;;
4519;SDS011;2272;49.226;8.108;2024-03-25T00:42:42;3.93;;;3.00;;
4519;SDS011;2272;49.226;8.108;2024-03-25T00:45:10;9.93;;;3.93;;
4519;SDS011;2272;49.226;8.108;2024-03-25T00:47:36;8.53;;;3.40;;
4519;SDS011;2272;49.226;8.108;2024-03-25T00:50:03;4.13;;;3.47;;
4519;SDS011;2272;49.226;8.108;2024-03-25T00:52:29;7.13;;;3.70;;
4519;SDS011;2272;49.226;8.108;2024-03-25T00:54:56;6.60;;;4.87;;
4519;SDS011;2272;49.226;8.108;2024-03-25T00:57:22;4.63;;;3.80;;
4519;SDS011;2272;49.226;8.108;2024-03-25T00:59:48;4.03;;;3.60;;
4519;SDS011;2272;49.226;8.108;2024-03-25T01:02:16;5.33;;;4.83;;
4519;SDS011;2272;49.226;8.108;2024-03-25T01:04:43;4.97;;;4.30;;
4519;SDS011;2272;49.226;8.108;2024-03-25T01:07:08;6.30;;;4.30;;
4519;SDS011;2272;49.226;8.108;2024-03-25T01:09:35;4.30;;;3.90;;
4519;SDS011;2272;49.226;8.108;2024-03-25T01:12:01;3.90;;;3.60;;
4519;SDS011;2272;49.226;8.108;2024-03-25T01:14:28;4.13;;;3.73;;
4519;SDS011;2272;49.226;8.108;2024-03-25T01:16:54;4.97;;;3.10;;
4519;SDS011;2272;49.226;8.108;2024-03-25T01:19:22;8.53;;;3.67;;
4519;SDS011;2272;49.226;8.108;2024-03-25T01:21:48;9.60;;;4.60;;
4519;SDS011;2272;49.226;8.108;2024-03-25T01:24:15;5.80;;;4.03;;
4519;SDS011;2272;49.226;8.108;2024-03-25T01:26:41;4.73;;;3.70;;
4519;SDS011;2272;49.226;8.108;2024-03-25T01:29:07;8.87;;;4.57;;
4519;SDS011;2272;49.226;8.108;2024-03-25T01:31:33;8.57;;;4.77;;
4519;SDS011;2272;49.226;8.108;2024-03-25T01:34:00;5.40;;;4.00;;
4519;SDS011;2272;49.226;8.108;2024-03-25T01:36:27;10.93;;;4.37;;
4519;SDS011;2272;49.226;8.108;2024-03-25T01:38:54;7.07;;;4.03;;
4519;SDS011;2272;49.226;8.108;2024-03-25T01:41:20;4.40;;;4.00;;
4519;SDS011;2272;49.226;8.108;2024-03-25T01:43:49;5.73;;;4.27;;
4519;SDS011;2272;49.226;8.108;2024-03-25T01:46:14;16.73;;;5.67;;
4519;SDS011;2272;49.226;8.108;2024-03-25T01:48:42;7.63;;;4.00;;
4519;SDS011;2272;49.226;8.108;2024-03-25T01:51:09;5.80;;;4.23;;
4519;SDS011;2272;49.226;8.108;2024-03-25T01:53:37;6.80;;;4.00;;
4519;SDS011;2272;49.226;8.108;2024-03-25T01:56:04;8.10;;;4.10;;
4519;SDS011;2272;49.226;8.108;2024-03-25T01:58:31;3.47;;;3.17;;
4519;SDS011;2272;49.226;8.108;2024-03-25T02:00:57;8.07;;;4.70;;
4519;SDS011;2272;49.226;8.108;2024-03-25T02:03:26;9.13;;;3.97;;
4519;SDS011;2272;49.226;8.108;2024-03-25T02:05:53;5.87;;;4.17;;
4519;SDS011;2272;49.226;8.108;2024-03-25T02:08:23;9.07;;;4.80;;
4519;SDS011;2272;49.226;8.108;2024-03-25T02:10:52;4.60;;;4.17;;
4519;SDS011;2272;49.226;8.108;2024-03-25T02:13:20;8.07;;;4.83;;
4519;SDS011;2272;49.226;8.108;2024-03-25T02:15:47;9.00;;;5.60;;
4519;SDS011;2272;49.226;8.108;2024-03-25T02:18:16;6.67;;;4.23;;
4519;SDS011;2272;49.226;8.108;2024-03-25T02:20:42;4.10;;;3.83;;
4519;SDS011;2272;49.226;8.108;2024-03-25T02:23:09;5.07;;;4.10;;
4519;SDS011;2272;49.226;8.108;2024-03-25T02:25:35;4.73;;;3.70;;
4519;SDS011;2272;49.226;8.108;2024-03-25T02:28:06;5.63;;;3.67;;
4519;SDS011;2272;49.226;8.108;2024-03-25T02:30:32;5.20;;;3.70;;
4519;SDS011;2272;49.226;8.108;2024-03-25T02:32:59;11.03;;;4.43;;
4519;SDS011;2272;49.226;8.108;2024-03-25T02:35:25;3.40;;;3.20;;
4519;SDS011;2272;49.226;8.108;2024-03-25T02:37:53;6.03;;;4.37;;
4519;SDS011;2272;49.226;8.108;2024-03-25T02:40:19;3.37;;;3.17;;
4519;SDS011;2272;49.226;8.108;2024-03-25T02:42:48;5.23;;;3.90;;
4519;SDS011;2272;49.226;8.108;2024-03-25T02:45:16;7.87;;;4.20;;
4519;SDS011;2272;49.226;8.108;2024-03-25T02:47:43;6.20;;;4.57;;
4519;SDS011;2272;49.226;8.108;2024-03-25T02:50:09;5.87;;;4.87;;
4519;SDS011;2272;49.226;8.108;2024-03-25T02:52:36;5.87;;;4.97;;
4519;SDS011;2272;49.226;8.108;2024-03-25T02:55:01;7.20;;;4.30;;
4519;SDS011;2272;49.226;8.108;2024-03-25T02:57:28;8.90;;;4.20;;
4519;SDS011;2272;49.226;8.108;2024-03-25T02:59:54;6.70;;;5.73;;
4519;SDS011;2272;49.226;8.108;2024-03-25T03:02:26;8.23;;;4.87;;
4519;SDS011;2272;49.226;8.108;2024-03-25T03:04:52;4.63;;;4.23;;
4519;SDS011;2272;49.226;8.108;2024-03-25T03:07:19;7.87;;;4.23;;
4519;SDS011;2272;49.226;8.108;2024-03-25T03:09:45;3.80;;;3.50;;
4519;SDS011;2272;49.226;8.108;2024-03-25T03:12:12;5.07;;;4.50;;
4519;SDS011;2272;49.226;8.108;2024-03-25T03:14:38;5.03;;;4.13;;
4519;SDS011;2272;49.226;8.108;2024-03-25T03:17:04;8.40;;;4.60;;
4519;SDS011;2272;49.226;8.108;2024-03-25T03:19:32;12.67;;;4.37;;
4519;SDS011;2272;49.226;8.108;2024-03-25T03:21:59;7.37;;;4.50;;
4519;SDS011;2272;49.226;8.108;2024-03-25T03:24:24;4.70;;;4.03;;
4519;SDS011;2272;49.226;8.108;2024-03-25T03:26:51;6.63;;;4.07;;
4519;SDS011;2272;49.226;8.108;2024-03-25T03:29:17;4.43;;;4.03;;
4519;SDS011;2272;49.226;8.108;2024-03-25T03:31:44;5.47;;;3.83;;
4519;SDS011;2272;49.226;8.108;2024-03-25T03:34:10;4.43;;;4.13;;
4519;SDS011;2272;49.226;8.108;2024-03-25T03:36:38;9.43;;;3.47;;
4519;SDS011;2272;49.226;8.108;2024-03-25T03:39:05;5.20;;;3.97;;
4519;SDS011;2272;49.226;8.108;2024-03-25T03:41:34;4.13;;;3.83;;
4519;SDS011;2272;49.226;8.108;2024-03-25T03:44:00;5.30;;;4.50;;
4519;SDS011;2272;49.226;8.108;2024-03-25T03:46:27;10.83;;;3.50;;
4519;SDS011;2272;49.226;8.108;2024-03-25T03:48:53;12.03;;;4.17;;
4519;SDS011;2272;49.226;8.108;2024-03-25T03:51:20;7.27;;;4.40;;
4519;SDS011;2272;49.226;8.108;2024-03-25T03:53:47;8.23;;;4.93;;
4519;SDS011;2272;49.226;8.108;2024-03-25T03:56:14;5.80;;;4.53;;
4519;SDS011;2272;49.226;8.108;2024-03-25T03:58:39;5.37;;;4.87;;
4519;SDS011;2272;49.226;8.108;2024-03-25T04:01:13;7.03;;;4.20;;
4519;SDS011;2272;49.226;8.108;2024-03-25T04:03:40;4.37;;;3.83;;
4519;SDS011;2272;49.226;8.108;2024-03-25T04:06:09;4.37;;;3.83;;
4519;SDS011;2272;49.226;8.108;2024-03-25T04:08:36;6.73;;;4.50;;
4519;SDS011;2272;49.226;8.108;2024-03-25T04:11:04;6.00;;;4.23;;
4519;SDS011;2272;49.226;8.108;2024-03-25T04:13:31;7.77;;;5.27;;
4519;SDS011;2272;49.226;8.108;2024-03-25T04:16:00;9.40;;;5.20;;
4519;SDS011;2272;49.226;8.108;2024-03-25T04:18:27;12.13;;;4.80;;
4519;SDS011;2272;49.226;8.108;2024-03-25T04:20:54;10.57;;;4.63;;
4519;SDS011;2272;49.226;8.108;2024-03-25T04:23:20;9.83;;;5.40;;
4519;SDS011;2272;49.226;8.108;2024-03-25T04:25:46;8.10;;;4.57;;
4519;SDS011;2272;49.226;8.108;2024-03-25T04:28:13;5.97;;;5.37;;
4519;SDS011;2272;49.226;8.108;2024-03-25T04:30:40;6.20;;;4.20;;
4519;SDS011;2272;49.226;8.108;2024-03-25T04:33:06;7.60;;;5.03;;
4519;SDS011;2272;49.226;8.108;2024-03-25T04:35:33;7.03;;;4.97;;
4519;SDS011;2272;49.226;8.108;2024-03-25T04:37:59;10.23;;;4.47;;
4519;SDS011;2272;49.226;8.108;2024-03-25T04:40:25;7.03;;;5.50;;
4519;SDS011;2272;49.226;8.108;2024-03-25T04:42:51;9.53;;;5.70;;
4519;SDS011;2272;49.226;8.108;2024-03-25T04:45:18;6.47;;;5.17;;
4519;SDS011;2272;49.226;8.108;2024-03-25T04:47:44;6.20;;;5.43;;
4519;SDS011;2272;49.226;8.108;2024-03-25T04:50:09;9.03;;;6.33;;
4519;SDS011;2272;49.226;8.108;2024-03-25T04:52:35;15.77;;;4.57;;
4519;SDS011;2272;49.226;8.108;2024-03-25T04:55:01;5.77;;;4.90;;
4519;SDS011;2272;49.226;8.108;2024-03-25T04:57:27;10.90;;;5.07;;
4519;SDS011;2272;49.226;8.108;2024-03-25T04:59:53;11.37;;;6.17;;
4519;SDS011;2272;49.226;8.108;2024-03-25T05:02:20;10.63;;;5.30;;
4519;SDS011;2272;49.226;8.108;2024-03-25T05:04:46;10.00;;;6.20;;
4519;SDS011;2272;49.226;8.108;2024-03-25T05:07:11;11.57;;;6.53;;
4519;SDS011;2272;49.226;8.108;2024-03-25T05:09:37;10.97;;;5.67;;
4519;SDS011;2272;49.226;8.108;2024-03-25T05:12:03;7.60;;;6.07;;
4519;SDS011;2272;49.226;8.108;2024-03-25T05:14:29;7.17;;;6.20;;
4519;SDS011;2272;49.226;8.108;2024-03-25T05:16:55;7.67;;;6.40;;
4519;SDS011;2272;49.226;8.108;2024-03-25T05:19:23;10.67;;;6.80;;
4519;SDS011;2272;49.226;8.108;2024-03-25T05:21:48;11.20;;;6.83;;
4519;SDS011;2272;49.226;8.108;2024-03-25T05:24:14;21.57;;;8.03;;
4519;SDS011;2272;49.226;8.108;2024-03-25T05:26:40;13.20;;;6.90;;
4519;SDS011;2272;49.226;8.108;2024-03-25T05:29:06;12.33;;;7.40;;
4519;SDS011;2272;49.226;8.108;2024-03-25T05:31:32;13.33;;;7.47;;
4519;SDS011;2272;49.226;8.108;2024-03-25T05:33:58;13.00;;;7.10;;
4519;SDS011;2272;49.226;8.108;2024-03-25T05:36:25;10.37;;;6.70;;
4519;SDS011;2272;49.226;8.108;2024-03-25T05:38:51;16.40;;;8.20;;
4519;SDS011;2272;49.226;8.108;2024-03-25T05:41:16;11.67;;;6.40;;
4519;SDS011;2272;49.226;8.108;2024-03-25T05:43:42;9.40;;;7.00;;
4519;SDS011;2272;49.226;8.108;2024-03-25T05:46:08;12.40;;;7.23;;
4519;SDS011;2272;49.226;8.108;2024-03-25T05:48:34;11.33;;;6.70;;
4519;SDS011;2272;49.226;8.108;2024-03-25T05:51:00;9.07;;;6.93;;
4519;SDS011;2272;49.226;8.108;2024-03-25T05:53:28;13.67;;;7.97;;
4519;SDS011;2272;49.226;8.108;2024-03-25T05:55:54;17.00;;;7.00;;
4519;SDS011;2272;49.226;8.108;2024-03-25T05:58:20;17.60;;;7.43;;
4519;SDS011;2272;49.226;8.108;2024-03-25T06:00:47;20.50;;;9.50;;
4519;SDS011;2272;49.226;8.108;2024-03-25T06:03:13;30.40;;;10.57;;
4519;SDS011;2272;49.226;8.108;2024-03-25T06:05:39;19.27;;;7.80;;
4519;SDS011;2272;49.226;8.108;2024-03-25T06:08:05;16.20;;;8.20;;
4519;SDS011;2272;49.226;8.108;2024-03-25T06:10:36;20.97;;;10.37;;
4519;SDS011;2272;49.226;8.108;2024-03-25T06:13:02;19.93;;;8.60;;
4519;SDS011;2272;49.226;8.108;2024-03-25T06:15:28;16.43;;;9.37;;
4519;SDS011;2272;49.226;8.108;2024-03-25T06:17:54;19.90;;;9.50;;
4519;SDS011;2272;49.226;8.108;2024-03-25T06:20:20;24.60;;;10.23;;
4519;SDS011;2272;49.226;8.108;2024-03-25T06:22:45;14.20;;;9.07;;
4519;SDS011;2272;49.226;8.108;2024-03-25T06:25:11;15.23;;;9.83;;
4519;SDS011;2272;49.226;8.108;2024-03-25T06:27:39;22.67;;;9.03;;
4519;SDS011;2272;49.226;8.108;2024-03-25T06:30:05;17.50;;;9.20;;
4519;SDS011;2272;49.226;8.108;2024-03-25T06:32:50;19.63;;;9.13;;
4519;SDS011;2272;49.226;8.108;2024-03-25T06:35:34;13.40;;;9.03;;
4519;SDS011;2272;49.226;8.108;2024-03-25T06:38:00;20.33;;;11.47;;
4519;SDS011;2272;49.226;8.108;2024-03-25T06:40:26;55.90;;;23.63;;
4519;SDS011;2272;49.226;8.108;2024-03-25T06:42:53;34.07;;;12.80;;
4519;SDS011;2272;49.226;8.108;2024-03-25T06:45:19;80.23;;;23.93;;
4519;SDS011;2272;49.226;8.108;2024-03-25T06:47:44;16.43;;;10.00;;
4519;SDS011;2272;49.226;8.108;2024-03-25T06:50:10;15.67;;;10.33;;
4519;SDS011;2272;49.226;8.108;2024-03-25T06:52:36;13.40;;;8.43;;
4519;SDS011;2272;49.226;8.108;2024-03-25T06:55:02;20.53;;;7.90;;
4519;SDS011;2272;49.226;8.108;2024-03-25T06:57:28;16.67;;;9.53;;
4519;SDS011;2272;49.226;8.108;2024-03-25T06:59:55;13.23;;;8.97;;
4519;SDS011;2272;49.226;8.108;2024-03-25T07:02:21;13.30;;;9.03;;
4519;SDS011;2272;49.226;8.108;2024-03-25T07:04:47;14.77;;;10.40;;
4519;SDS011;2272;49.226;8.108;2024-03-25T07:07:13;18.90;;;10.73;;
4519;SDS011;2272;49.226;8.108;2024-03-25T07:09:39;31.10;;;12.13;;
4519;SDS011;2272;49.226;8.108;2024-03-25T07:12:05;38.20;;;14.43;;
4519;SDS011;2272;49.226;8.108;2024-03-25T07:14:31;41.33;;;20.13;;
4519;SDS011;2272;49.226;8.108;2024-03-25T07:16:58;15.70;;;9.77;;
4519;SDS011;2272;49.226;8.108;2024-03-25T07:19:24;17.77;;;9.27;;
4519;SDS011;2272;49.226;8.108;2024-03-25T07:21:50;15.00;;;9.17;;
4519;SDS011;2272;49.226;8.108;2024-03-25T07:24:16;14.33;;;8.03;;
4519;SDS011;2272;49.226;8.108;2024-03-25T07:26:42;31.70;;;15.10;;
4519;SDS011;2272;49.226;8.108;2024-03-25T07:29:08;28.83;;;12.60;;
4519;SDS011;2272;49.226;8.108;2024-03-25T07:31:34;19.60;;;12.60;;
4519;SDS011;2272;49.226;8.108;2024-03-25T07:34:01;28.50;;;14.23;;
4519;SDS011;2272;49.226;8.108;2024-03-25T07:36:27;24.73;;;13.43;;
4519;SDS011;2272;49.226;8.108;2024-03-25T07:38:53;18.33;;;10.57;;
4519;SDS011;2272;49.226;8.108;2024-03-25T07:41:19;14.67;;;8.37;;
4519;SDS011;2272;49.226;8.108;2024-03-25T07:43:44;17.07;;;7.73;;
4519;SDS011;2272;49.226;8.108;2024-03-25T07:46:10;17.30;;;9.77;;
4519;SDS011;2272;49.226;8.108;2024-03-25T07:48:36;16.50;;;9.70;;
4519;SDS011;2272;49.226;8.108;2024-03-25T07:51:03;17.20;;;11.00;;
4519;SDS011;2272;49.226;8.108;2024-03-25T07:53:29;20.80;;;11.50;;
4519;SDS011;2272;49.226;8.108;2024-03-25T07:55:55;21.33;;;9.60;;
4519;SDS011;2272;49.226;8.108;2024-03-25T07:58:21;12.73;;;8.23;;
4519;SDS011;2272;49.226;8.108;2024-03-25T08:00:46;17.57;;;9.67;;
4519;SDS011;2272;49.226;8.108;2024-03-25T08:03:12;35.30;;;17.10;;
4519;SDS011;2272;49.226;8.108;2024-03-25T08:05:38;21.33;;;13.40;;
4519;SDS011;2272;49.226;8.108;2024-03-25T08:08:06;29.67;;;15.73;;
4519;SDS011;2272;49.226;8.108;2024-03-25T08:10:32;20.60;;;11.57;;
4519;SDS011;2272;49.226;8.108;2024-03-25T08:12:57;19.60;;;11.30;;
4519;SDS011;2272;49.226;8.108;2024-03-25T08:15:23;22.37;;;12.33;;
4519;SDS011;2272;49.226;8.108;2024-03-25T08:17:49;18.87;;;10.10;;
4519;SDS011;2272;49.226;8.108;2024-03-25T08:20:15;19.27;;;10.20;;
4519;SDS011;2272;49.226;8.108;2024-03-25T08:22:41;27.40;;;14.03;;
4519;SDS011;2272;49.226;8.108;2024-03-25T08:25:08;11.77;;;8.90;;
4519;SDS011;2272;49.226;8.108;2024-03-25T08:27:34;13.63;;;8.50;;
4519;SDS011;2272;49.226;8.108;2024-03-25T08:30:00;17.77;;;8.70;;
4519;SDS011;2272;49.226;8.108;2024-03-25T08:32:26;14.83;;;9.63;;
4519;SDS011;2272;49.226;8.108;2024-03-25T08:34:51;9.87;;;8.17;;
4519;SDS011;2272;49.226;8.108;2024-03-25T08:37:17;11.73;;;9.07;;
4519;SDS011;2272;49.226;8.108;2024-03-25T08:39:43;22.90;;;9.57;;
4519;SDS011;2272;49.226;8.108;2024-03-25T08:42:10;9.67;;;6.90;;
4519;SDS011;2272;49.226;8.108;2024-03-25T08:44:36;17.77;;;9.20;;
4519;SDS011;2272;49.226;8.108;2024-03-25T08:47:02;13.87;;;6.10;;
4519;SDS011;2272;49.226;8.108;2024-03-25T08:49:29;5.50;;;5.03;;
4519;SDS011;2272;49.226;8.108;2024-03-25T08:51:54;16.53;;;7.37;;
4519;SDS011;2272;49.226;8.108;2024-03-25T08:54:20;12.80;;;7.30;;
4519;SDS011;2272;49.226;8.108;2024-03-25T08:56:46;13.63;;;6.93;;
4519;SDS011;2272;49.226;8.108;2024-03-25T08:59:13;12.23;;;6.37;;
4519;SDS011;2272;49.226;8.108;2024-03-25T09:01:39;16.47;;;6.83;;
4519;SDS011;2272;49.226;8.108;2024-03-25T09:04:05;11.97;;;7.40;;
4519;SDS011;2272;49.226;8.108;2024-03-25T09:06:31;11.60;;;6.90;;
4519;SDS011;2272;49.226;8.108;2024-03-25T09:08:57;10.30;;;6.83;;
4519;SDS011;2272;49.226;8.108;2024-03-25T09:11:41;11.27;;;7.30;;
4519;SDS011;2272;49.226;8.108;2024-03-25T09:14:07;16.30;;;9.33;;
4519;SDS011;2272;49.226;8.108;2024-03-25T09:16:34;13.80;;;8.70;;
4519;SDS011;2272;49.226;8.108;2024-03-25T09:19:00;10.70;;;7.10;;
4519;SDS011;2272;49.226;8.108;2024-03-25T09:21:26;11.47;;;6.43;;
4519;SDS011;2272;49.226;8.108;2024-03-25T09:23:52;5.73;;;3.40;;
4519;SDS011;2272;49.226;8.108;2024-03-25T09:26:18;6.50;;;3.07;;
4519;SDS011;2272;49.226;8.108;2024-03-25T09:28:44;5.37;;;3.07;;
4519;SDS011;2272;49.226;8.108;2024-03-25T09:31:09;3.47;;;2.30;;
4519;SDS011;2272;49.226;8.108;2024-03-25T09:33:37;4.10;;;2.17;;
4519;SDS011;2272;49.226;8.108;2024-03-25T09:36:02;5.07;;;2.40;;
4519;SDS011;2272;49.226;8.108;2024-03-25T09:38:29;3.93;;;3.37;;
4519;SDS011;2272;49.226;8.108;2024-03-25T09:40:55;7.53;;;3.13;;
4519;SDS011;2272;49.226;8.108;2024-03-25T09:43:23;6.40;;;2.80;;
4519;SDS011;2272;49.226;8.108;2024-03-25T09:45:52;6.67;;;3.07;;
4519;SDS011;2272;49.226;8.108;2024-03-25T09:48:20;3.33;;;2.67;;
4519;SDS011;2272;49.226;8.108;2024-03-25T09:50:48;2.77;;;2.40;;
4519;SDS011;2272;49.226;8.108;2024-03-25T09:53:15;1.80;;;1.70;;
4519;SDS011;2272;49.226;8.108;2024-03-25T09:55:41;3.00;;;2.70;;
4519;SDS011;2272;49.226;8.108;2024-03-25T09:58:07;2.33;;;2.00;;
4519;SDS011;2272;49.226;8.108;2024-03-25T10:00:35;4.53;;;1.80;;
4519;SDS011;2272;49.226;8.108;2024-03-25T10:05:34;4.63;;;2.27;;
4519;SDS011;2272;49.226;8.108;2024-03-25T10:08:04;5.53;;;2.97;;
4519;SDS011;2272;49.226;8.108;2024-03-25T10:10:33;3.40;;;1.90;;
4519;SDS011;2272;49.226;8.108;2024-03-25T10:12:59;3.63;;;2.20;;
4519;SDS011;2272;49.226;8.108;2024-03-25T10:18:00;4.20;;;2.17;;
4519;SDS011;2272;49.226;8.108;2024-03-25T10:20:26;2.60;;;1.93;;
4519;SDS011;2272;49.226;8.108;2024-03-25T10:22:53;5.57;;;2.60;;
4519;SDS011;2272;49.226;8.108;2024-03-25T10:25:22;4.80;;;1.83;;
4519;SDS011;2272;49.226;8.108;2024-03-25T10:27:55;4.77;;;2.33;;
4519;SDS011;2272;49.226;8.108;2024-03-25T10:30:21;5.70;;;2.93;;
4519;SDS011;2272;49.226;8.108;2024-03-25T10:32:57;4.80;;;2.10;;
4519;SDS011;2272;49.226;8.108;2024-03-25T10:35:25;5.13;;;2.57;;
4519;SDS011;2272;49.226;8.108;2024-03-25T10:37:52;4.30;;;2.30;;
4519;SDS011;2272;49.226;8.108;2024-03-25T10:40:22;6.57;;;2.40;;
4519;SDS011;2272;49.226;8.108;2024-03-25T10:42:55;7.37;;;3.13;;
4519;SDS011;2272;49.226;8.108;2024-03-25T10:45:27;4.00;;;1.63;;
4519;SDS011;2272;49.226;8.108;2024-03-25T10:48:01;7.60;;;2.60;;
4519;SDS011;2272;49.226;8.108;2024-03-25T10:50:33;7.30;;;2.90;;
4519;SDS011;2272;49.226;8.108;2024-03-25T10:53:05;12.73;;;2.37;;
4519;SDS011;2272;49.226;8.108;2024-03-25T10:58:10;5.03;;;2.97;;
4519;SDS011;2272;49.226;8.108;2024-03-25T11:00:36;6.07;;;2.17;;
4519;SDS011;2272;49.226;8.108;2024-03-25T11:03:03;2.70;;;2.03;;
4519;SDS011;2272;49.226;8.108;2024-03-25T11:05:29;7.73;;;3.70;;
4519;SDS011;2272;49.226;8.108;2024-03-25T11:07:55;5.00;;;2.23;;
4519;SDS011;2272;49.226;8.108;2024-03-25T11:10:28;4.77;;;2.03;;
4519;SDS011;2272;49.226;8.108;2024-03-25T11:12:55;5.13;;;2.40;;
4519;SDS011;2272;49.226;8.108;2024-03-25T11:15:22;3.53;;;2.30;;
4519;SDS011;2272;49.226;8.108;2024-03-25T11:17:48;2.00;;;1.63;;
4519;SDS011;2272;49.226;8.108;2024-03-25T11:20:15;3.33;;;2.03;;
4519;SDS011;2272;49.226;8.108;2024-03-25T11:22:48;3.70;;;1.90;;
4519;SDS011;2272;49.226;8.108;2024-03-25T11:25:17;9.17;;;3.20;;
4519;SDS011;2272;49.226;8.108;2024-03-25T11:27:47;3.23;;;2.30;;
4519;SDS011;2272;49.226;8.108;2024-03-25T11:30:13;7.77;;;2.93;;
4519;SDS011;2272;49.226;8.108;2024-03-25T11:32:45;3.37;;;2.10;;
4519;SDS011;2272;49.226;8.108;2024-03-25T11:35:12;2.40;;;1.60;;
4519;SDS011;2272;49.226;8.108;2024-03-25T11:37:39;3.60;;;1.80;;
4519;SDS011;2272;49.226;8.108;2024-03-25T11:40:06;10.30;;;2.50;;
4519;SDS011;2272;49.226;8.108;2024-03-25T11:42:32;4.93;;;1.73;;
4519;SDS011;2272;49.226;8.108;2024-03-25T11:44:59;5.20;;;2.10;;
4519;SDS011;2272;49.226;8.108;2024-03-25T11:47:25;6.60;;;2.20;;
4519;SDS011;2272;49.226;8.108;2024-03-25T11:49:53;1.40;;;1.30;;
4519;SDS011;2272;49.226;8.108;2024-03-25T11:52:19;3.33;;;2.50;;
4519;SDS011;2272;49.226;8.108;2024-03-25T11:54:45;3.27;;;1.90;;
4519;SDS011;2272;49.226;8.108;2024-03-25T11:57:27;1.70;;;1.60;;
4519;SDS011;2272;49.226;8.108;2024-03-25T11:59:53;4.10;;;2.10;;
4519;SDS011;2272;49.226;8.108;2024-03-25T12:02:19;6.53;;;2.43;;
4519;SDS011;2272;49.226;8.108;2024-03-25T12:04:47;5.23;;;1.73;;
4519;SDS011;2272;49.226;8.108;2024-03-25T12:07:14;2.47;;;1.90;;
4519;SDS011;2272;49.226;8.108;2024-03-25T12:09:40;4.07;;;1.50;;
4519;SDS011;2272;49.226;8.108;2024-03-25T12:12:25;3.53;;;2.47;;
4519;SDS011;2272;49.226;8.108;2024-03-25T12:14:51;4.13;;;2.33;;
4519;SDS011;2272;49.226;8.108;2024-03-25T12:17:18;2.53;;;2.33;;
4519;SDS011;2272;49.226;8.108;2024-03-25T12:19:45;2.27;;;2.07;;
4519;SDS011;2272;49.226;8.108;2024-03-25T12:22:24;3.73;;;2.77;;
4519;SDS011;2272;49.226;8.108;2024-03-25T12:24:50;4.67;;;2.37;;
4519;SDS011;2272;49.226;8.108;2024-03-25T12:27:16;2.20;;;1.93;;
4519;SDS011;2272;49.226;8.108;2024-03-25T12:29:42;2.33;;;2.03;;
4519;SDS011;2272;49.226;8.108;2024-03-25T12:32:09;5.90;;;2.17;;
4519;SDS011;2272;49.226;8.108;2024-03-25T12:34:35;2.90;;;1.83;;
4519;SDS011;2272;49.226;8.108;2024-03-25T12:37:01;2.23;;;2.00;;
4519;SDS011;2272;49.226;8.108;2024-03-25T12:39:29;4.07;;;1.70;;
4519;SDS011;2272;49.226;8.108;2024-03-25T12:41:55;7.93;;;2.00;;
4519;SDS011;2272;49.226;8.108;2024-03-25T12:44:22;2.90;;;2.13;;
4519;SDS011;2272;49.226;8.108;2024-03-25T12:46:48;1.90;;;1.47;;
4519;SDS011;2272;49.226;8.108;2024-03-25T12:49:14;1.80;;;1.70;;
4519;SDS011;2272;49.226;8.108;2024-03-25T12:51:39;2.00;;;1.90;;
4519;SDS011;2272;49.226;8.108;2024-03-25T12:54:05;3.07;;;1.77;;
4519;SDS011;2272;49.226;8.108;2024-03-25T12:56:33;4.30;;;1.63;;
4519;SDS011;2272;49.226;8.108;2024-03-25T12:58:58;4.93;;;2.13;;
4519;SDS011;2272;49.226;8.108;2024-03-25T13:01:24;3.07;;;1.80;;
4519;SDS011;2272;49.226;8.108;2024-03-25T13:03:53;2.10;;;1.63;;
4519;SDS011;2272;49.226;8.108;2024-03-25T13:06:19;6.83;;;1.90;;
4519;SDS011;2272;49.226;8.108;2024-03-25T13:08:45;3.47;;;2.83;;
4519;SDS011;2272;49.226;8.108;2024-03-25T13:11:11;5.33;;;2.17;;
4519;SDS011;2272;49.226;8.108;2024-03-25T13:13:38;1.57;;;1.47;;
4519;SDS011;2272;49.226;8.108;2024-03-25T13:16:04;2.43;;;1.50;;
4519;SDS011;2272;49.226;8.108;2024-03-25T13:18:30;3.43;;;1.93;;
4519;SDS011;2272;49.226;8.108;2024-03-25T13:20:56;2.50;;;2.03;;
4519;SDS011;2272;49.226;8.108;2024-03-25T13:23:23;3.60;;;1.93;;
4519;SDS011;2272;49.226;8.108;2024-03-25T13:25:49;3.00;;;2.30;;
4519;SDS011;2272;49.226;8.108;2024-03-25T13:28:15;4.40;;;2.20;;
4519;SDS011;2272;49.226;8.108;2024-03-25T13:30:42;2.60;;;2.30;;
4519;SDS011;2272;49.226;8.108;2024-03-25T13:33:08;2.23;;;1.87;;
4519;SDS011;2272;49.226;8.108;2024-03-25T13:35:33;5.50;;;2.70;;
4519;SDS011;2272;49.226;8.108;2024-03-25T13:37:59;5.40;;;1.60;;
4519;SDS011;2272;49.226;8.108;2024-03-25T13:40:25;2.83;;;2.00;;
4519;SDS011;2272;49.226;8.108;2024-03-25T13:42:51;5.00;;;2.10;;
4519;SDS011;2272;49.226;8.108;2024-03-25T13:45:17;3.33;;;2.00;;
4519;SDS011;2272;49.226;8.108;2024-03-25T13:47:44;4.37;;;2.10;;
4519;SDS011;2272;49.226;8.108;2024-03-25T13:50:10;4.67;;;1.87;;
4519;SDS011;2272;49.226;8.108;2024-03-25T13:52:36;4.47;;;1.57;;
4519;SDS011;2272;49.226;8.108;2024-03-25T13:55:02;2.10;;;1.60;;
4519;SDS011;2272;49.226;8.108;2024-03-25T13:57:28;1.77;;;1.67;;
4519;SDS011;2272;49.226;8.108;2024-03-25T13:59:54;1.90;;;1.67;;
4519;SDS011;2272;49.226;8.108;2024-03-25T14:02:20;3.23;;;1.57;;
4519;SDS011;2272;49.226;8.108;2024-03-25T14:04:49;20.67;;;1.77;;
4519;SDS011;2272;49.226;8.108;2024-03-25T14:07:15;2.13;;;1.93;;
4519;SDS011;2272;49.226;8.108;2024-03-25T14:09:41;2.33;;;2.17;;
4519;SDS011;2272;49.226;8.108;2024-03-25T14:12:07;2.33;;;2.07;;
4519;SDS011;2272;49.226;8.108;2024-03-25T14:14:33;1.83;;;1.73;;
4519;SDS011;2272;49.226;8.108;2024-03-25T14:16:59;2.40;;;1.80;;
4519;SDS011;2272;49.226;8.108;2024-03-25T14:19:25;2.20;;;2.10;;
4519;SDS011;2272;49.226;8.108;2024-03-25T14:21:52;2.57;;;2.37;;
4519;SDS011;2272;49.226;8.108;2024-03-25T14:24:18;1.93;;;1.73;;
4519;SDS011;2272;49.226;8.108;2024-03-25T14:26:44;5.53;;;2.27;;
4519;SDS011;2272;49.226;8.108;2024-03-25T14:29:10;2.90;;;1.93;;
4519;SDS011;2272;49.226;8.108;2024-03-25T14:31:35;3.20;;;2.10;;
4519;SDS011;2272;49.226;8.108;2024-03-25T14:34:01;2.90;;;2.10;;
4519;SDS011;2272;49.226;8.108;2024-03-25T14:36:27;4.07;;;2.10;;
4519;SDS011;2272;49.226;8.108;2024-03-25T14:38:54;1.67;;;1.57;;
4519;SDS011;2272;49.226;8.108;2024-03-25T14:41:21;3.27;;;1.30;;
4519;SDS011;2272;49.226;8.108;2024-03-25T14:43:47;7.20;;;3.07;;
4519;SDS011;2272;49.226;8.108;2024-03-25T14:46:13;2.23;;;1.50;;
4519;SDS011;2272;49.226;8.108;2024-03-25T14:48:39;2.30;;;1.90;;
4519;SDS011;2272;49.226;8.108;2024-03-25T14:51:04;3.87;;;2.30;;
4519;SDS011;2272;49.226;8.108;2024-03-25T14:53:30;4.33;;;1.80;;
4519;SDS011;2272;49.226;8.108;2024-03-25T14:55:57;7.20;;;2.17;;
4519;SDS011;2272;49.226;8.108;2024-03-25T14:58:23;2.00;;;1.60;;
4519;SDS011;2272;49.226;8.108;2024-03-25T15:00:49;3.70;;;2.27;;
4519;SDS011;2272;49.226;8.108;2024-03-25T15:03:15;2.10;;;1.90;;
4519;SDS011;2272;49.226;8.108;2024-03-25T15:05:41;3.47;;;2.13;;
4519;SDS011;2272;49.226;8.108;2024-03-25T15:08:07;7.77;;;2.60;;
4519;SDS011;2272;49.226;8.108;2024-03-25T15:10:33;3.63;;;2.53;;
4519;SDS011;2272;49.226;8.108;2024-03-25T15:13:00;6.47;;;2.40;;
4519;SDS011;2272;49.226;8.108;2024-03-25T15:15:26;1.40;;;1.20;;